Portada
METAR-TAF:

METAR-TAF

Aeroports :

Vanua Lava, Vanuatu

latitud: 13-51-06S, longitud: 167-32-13E, altitud: 2 m

Observació

L'informe es va fer fa 3 hores i 8 minuts, a les 09:00 UTC
Vent 6 kt del Est/Sud-Est
Temperatura 27°C
Humitat 79%
Pressió 1015 hPa
Visibilitat 10 km o més
Núvols disperses a una alçada de 3000 ft

METAR: NVSC 250900Z 12006KT 9999 SCT030 27/23 Q1015

Hora: 23:08 (12:08 UTC)

Pronòstic

L'informe es va fer fa 2 hores i 8 minuts, a les 10:00 UTC
Pronòstic vàlid del 25 a les 12 UTC al 26 a les 12 UTC
Vent 2 kt amb direcció variable
Visibilitat 10 km o més
Núvols disperses a una alçada de 2000 ft

TAF: NVSC 251000Z 2512/2612 VRB02KT 9999 SCT020

Observacions i pronòstics meteorològics de més de 4000 aeroports (METAR i TAF).

Les estacions disponibles són els punts grocs i vermells al mapa.

Posi el ratolí al punt desitjat per veure el nom de l'estació.

Feu clic per veure les observacions i els pronòstics meteorològics.

Per canviar el mapa: feu clic els botons verds amb una creu de color negre per apropar; al botó verd amb un guió per allunyar la imatge; o en les fletxes verdes per a mapes adjacents.


METAR-TAF: